Terminal Aerodrome Forecast
Issued by NWS

Home | Current Version | Previous Version | Text Only | Print | Product List | Glossary On
Versions: 1 2 3 4 5 6 7 8 9 10 11 12 13 14 15 16 17 18 19
000
FTUS46 KPDT 231700
TAFALW
TAF
KALW 231733Z 2318/2418 16011G16KT P6SM VCSH BKN050 BKN070
     FM232100 22014G21KT P6SM -SHRA BKN040 OVC060
     FM240100 19007KT P6SM VCSH BKN050 BKN080
     FM240300 16007KT P6SM -SHRA BKN040 OVC060
     FM241500 20011KT P6SM -SHRA BKN040 OVC060=

USA.gov is the U.S. government's official web portal to all federal, state and local government web resources and services.